PGT2DK LTBJ-LTCO
Flight info
| Callsign | PGT2DK |
|---|---|
| Flight time | N/A |
| Altitude | 39000 |
| Route | KULAR UT54 KFK UR32 HAY UT54 SIV UA4 ERZ UL851 INBAT |
| Aircraft | A20N/M-SDE2E3FGHIRWXY/LB1 |
Departure
| Time | N/A |
|---|---|
| Airport | Adnan Menderes International Airport (LTBJ) |
Arrival
| Time | 2026-05-07 18:59 |
|---|---|
| Airport | Ağrı Airport (LTCO) |
| Time | Latitude | Longitude | Altitude | Speed | Heading |
|---|---|---|---|---|---|
| 2026-05-07 17:51 | 39.60952 | 34.20465 | 39170 ft | 459 kts | 79° |
| 2026-05-07 17:51 | 39.61720 | 34.28621 | 39169 ft | 459 kts | 79° |
| 2026-05-07 17:52 | 39.62493 | 34.36891 | 39160 ft | 459 kts | 79° |
| 2026-05-07 17:52 | 39.63334 | 34.45958 | 39165 ft | 459 kts | 79° |
| 2026-05-07 17:53 | 39.64061 | 34.53868 | 39158 ft | 459 kts | 79° |
| 2026-05-07 17:53 | 39.64871 | 34.62751 | 39168 ft | 459 kts | 79° |
| 2026-05-07 17:54 | 39.65505 | 34.69760 | 39170 ft | 459 kts | 80° |
| 2026-05-07 17:54 | 39.66115 | 34.76541 | 39163 ft | 459 kts | 80° |
| 2026-05-07 17:55 | 39.66949 | 34.85900 | 39161 ft | 460 kts | 80° |
| 2026-05-07 17:55 | 39.67721 | 34.94633 | 39162 ft | 460 kts | 80° |
| 2026-05-07 17:56 | 39.68458 | 35.03051 | 39165 ft | 460 kts | 80° |
| 2026-05-07 17:56 | 39.69177 | 35.11319 | 39161 ft | 460 kts | 80° |
| 2026-05-07 17:57 | 39.69769 | 35.18180 | 39154 ft | 460 kts | 81° |
| 2026-05-07 17:57 | 39.70458 | 35.26242 | 39164 ft | 460 kts | 81° |
| 2026-05-07 17:58 | 39.70871 | 35.31099 | 39167 ft | 461 kts | 81° |
| 2026-05-07 17:58 | 39.72023 | 35.44784 | 39165 ft | 460 kts | 81° |
| 2026-05-07 17:59 | 39.72723 | 35.53197 | 39171 ft | 460 kts | 81° |
| 2026-05-07 17:59 | 39.73289 | 35.60061 | 39165 ft | 460 kts | 81° |
| 2026-05-07 18:00 | 39.73990 | 35.68661 | 39185 ft | 460 kts | 81° |
| 2026-05-07 18:00 | 39.74663 | 35.77008 | 39180 ft | 461 kts | 81° |
| 2026-05-07 18:01 | 39.75327 | 35.85319 | 39183 ft | 461 kts | 81° |
| 2026-05-07 18:01 | 39.75983 | 35.93611 | 39194 ft | 461 kts | 81° |
| 2026-05-07 18:02 | 39.76959 | 36.06075 | 39194 ft | 460 kts | 82° |
| 2026-05-07 18:03 | 39.77607 | 36.14442 | 39190 ft | 460 kts | 82° |
| 2026-05-07 18:03 | 39.78251 | 36.22844 | 39192 ft | 461 kts | 82° |
| 2026-05-07 18:04 | 39.78575 | 36.31381 | 39188 ft | 462 kts | 86° |
| 2026-05-07 18:04 | 39.78614 | 36.39757 | 39208 ft | 462 kts | 88° |
| 2026-05-07 18:05 | 39.78641 | 36.48413 | 39192 ft | 463 kts | 87° |
| 2026-05-07 18:05 | 39.78699 | 36.56798 | 39212 ft | 463 kts | 87° |
| 2026-05-07 18:06 | 39.78759 | 36.63936 | 39220 ft | 463 kts | 87° |
| 2026-05-07 18:06 | 39.78831 | 36.72614 | 39231 ft | 464 kts | 87° |
| 2026-05-07 18:07 | 39.78895 | 36.81152 | 39238 ft | 464 kts | 87° |
| 2026-05-07 18:07 | 39.79046 | 36.89561 | 39238 ft | 463 kts | 83° |
| 2026-05-07 18:08 | 39.79652 | 36.98059 | 39236 ft | 463 kts | 82° |
| 2026-05-07 18:08 | 39.80347 | 37.06567 | 39232 ft | 463 kts | 82° |
| 2026-05-07 18:09 | 39.81020 | 37.14692 | 39222 ft | 463 kts | 82° |
| 2026-05-07 18:09 | 39.81731 | 37.23445 | 39209 ft | 463 kts | 82° |
| 2026-05-07 18:10 | 39.82409 | 37.31935 | 39196 ft | 463 kts | 82° |
| 2026-05-07 18:10 | 39.82965 | 37.38966 | 39188 ft | 462 kts | 82° |
| 2026-05-07 18:11 | 39.83624 | 37.47410 | 39188 ft | 462 kts | 82° |
| 2026-05-07 18:11 | 39.84265 | 37.55783 | 39187 ft | 462 kts | 83° |
| 2026-05-07 18:12 | 39.84899 | 37.64152 | 39189 ft | 462 kts | 83° |
| 2026-05-07 18:12 | 39.85550 | 37.72828 | 39189 ft | 462 kts | 83° |
| 2026-05-07 18:13 | 39.86200 | 37.81558 | 39182 ft | 463 kts | 83° |
| 2026-05-07 18:13 | 39.86710 | 37.88480 | 39180 ft | 462 kts | 83° |
| 2026-05-07 18:14 | 39.87215 | 37.95386 | 39178 ft | 462 kts | 83° |
| 2026-05-07 18:14 | 39.88001 | 38.06169 | 39181 ft | 463 kts | 83° |
| 2026-05-07 18:15 | 39.88611 | 38.14557 | 39176 ft | 463 kts | 83° |
| 2026-05-07 18:15 | 39.89219 | 38.23020 | 39175 ft | 463 kts | 84° |
| 2026-05-07 18:16 | 39.89814 | 38.31385 | 39171 ft | 464 kts | 84° |
| 2026-05-07 18:16 | 39.90411 | 38.39877 | 39170 ft | 465 kts | 84° |
| 2026-05-07 18:17 | 39.90995 | 38.48264 | 39172 ft | 465 kts | 84° |
| 2026-05-07 18:17 | 39.91575 | 38.56704 | 39171 ft | 465 kts | 84° |
| 2026-05-07 18:18 | 39.92147 | 38.65095 | 39180 ft | 465 kts | 84° |
| 2026-05-07 18:18 | 39.92622 | 38.72133 | 39169 ft | 464 kts | 84° |
| 2026-05-07 18:19 | 39.93203 | 38.80837 | 39173 ft | 464 kts | 84° |
| 2026-05-07 18:19 | 39.93746 | 38.89395 | 39173 ft | 465 kts | 86° |
| 2026-05-07 18:20 | 39.93968 | 38.97946 | 39174 ft | 465 kts | 88° |
| 2026-05-07 18:20 | 39.94048 | 39.06393 | 39171 ft | 465 kts | 89° |
| 2026-05-07 18:21 | 39.94143 | 39.14978 | 39173 ft | 465 kts | 89° |
| 2026-05-07 18:21 | 39.94267 | 39.23466 | 39172 ft | 465 kts | 88° |
| 2026-05-07 18:22 | 39.94397 | 39.31886 | 39172 ft | 464 kts | 89° |
| 2026-05-07 18:22 | 39.94520 | 39.40251 | 39188 ft | 465 kts | 89° |
| 2026-05-07 18:23 | 39.94637 | 39.48663 | 39192 ft | 465 kts | 89° |
| 2026-05-07 18:23 | 39.94746 | 39.57094 | 39189 ft | 465 kts | 89° |
| 2026-05-07 18:24 | 39.94852 | 39.65534 | 39191 ft | 465 kts | 89° |
| 2026-05-07 18:24 | 39.94952 | 39.73993 | 39187 ft | 466 kts | 89° |
| 2026-05-07 18:25 | 39.95047 | 39.82432 | 39182 ft | 466 kts | 89° |
| 2026-05-07 18:25 | 39.95135 | 39.90873 | 39178 ft | 466 kts | 89° |
| 2026-05-07 18:26 | 39.95215 | 39.99325 | 39176 ft | 466 kts | 89° |
| 2026-05-07 18:26 | 39.95286 | 40.07787 | 39182 ft | 467 kts | 89° |
| 2026-05-07 18:27 | 39.95351 | 40.16265 | 39182 ft | 467 kts | 90° |
| 2026-05-07 18:27 | 39.95411 | 40.24759 | 39184 ft | 467 kts | 90° |
| 2026-05-07 18:28 | 39.95465 | 40.33257 | 39185 ft | 467 kts | 90° |
| 2026-05-07 18:28 | 39.95505 | 40.40352 | 39176 ft | 467 kts | 90° |
| 2026-05-07 18:29 | 39.95547 | 40.48830 | 39187 ft | 469 kts | 90° |
| 2026-05-07 18:29 | 39.95584 | 40.57444 | 39201 ft | 469 kts | 90° |
| 2026-05-07 18:30 | 39.95614 | 40.65951 | 39190 ft | 469 kts | 90° |
| 2026-05-07 18:30 | 39.95640 | 40.74519 | 39194 ft | 469 kts | 90° |
| 2026-05-07 18:31 | 39.95659 | 40.83091 | 39198 ft | 470 kts | 91° |
| 2026-05-07 18:31 | 39.95672 | 40.91558 | 39205 ft | 471 kts | 91° |
| 2026-05-07 18:32 | 39.95680 | 41.00213 | 39209 ft | 471 kts | 91° |
| 2026-05-07 18:32 | 39.95681 | 41.04541 | 39099 ft | 471 kts | 91° |
| 2026-05-07 18:32 | 39.95681 | 41.08791 | 38879 ft | 466 kts | 91° |
| 2026-05-07 18:32 | 39.95680 | 41.12991 | 38477 ft | 462 kts | 91° |
| 2026-05-07 18:33 | 39.95675 | 41.17206 | 37751 ft | 466 kts | 91° |
| 2026-05-07 18:33 | 39.95407 | 41.21459 | 37090 ft | 467 kts | 100° |
| 2026-05-07 18:33 | 39.94853 | 41.25665 | 36426 ft | 468 kts | 102° |
| 2026-05-07 18:33 | 39.94237 | 41.29789 | 35725 ft | 470 kts | 103° |
| 2026-05-07 18:34 | 39.93565 | 41.33979 | 34987 ft | 474 kts | 103° |
| 2026-05-07 18:34 | 39.92867 | 41.38190 | 34214 ft | 478 kts | 103° |
| 2026-05-07 18:34 | 39.92148 | 41.42481 | 33284 ft | 482 kts | 103° |
| 2026-05-07 18:34 | 39.91430 | 41.46768 | 32449 ft | 484 kts | 103° |
| 2026-05-07 18:35 | 39.90702 | 41.51132 | 31570 ft | 486 kts | 103° |
| 2026-05-07 18:35 | 39.89985 | 41.55444 | 30692 ft | 489 kts | 103° |
| 2026-05-07 18:35 | 39.89266 | 41.59779 | 29809 ft | 489 kts | 102° |
| 2026-05-07 18:35 | 39.88589 | 41.63863 | 29378 ft | 480 kts | 102° |
| 2026-05-07 18:36 | 39.87876 | 41.68156 | 28655 ft | 476 kts | 102° |
| 2026-05-07 18:36 | 39.87143 | 41.72561 | 27960 ft | 470 kts | 102° |
| 2026-05-07 18:36 | 39.86451 | 41.76709 | 27310 ft | 466 kts | 102° |
| 2026-05-07 18:36 | 39.85764 | 41.80807 | 26684 ft | 461 kts | 102° |
| 2026-05-07 18:37 | 39.85081 | 41.84868 | 26065 ft | 457 kts | 102° |
| 2026-05-07 18:37 | 39.84403 | 41.88885 | 25478 ft | 452 kts | 102° |
| 2026-05-07 18:37 | 39.83725 | 41.92900 | 24937 ft | 446 kts | 102° |
| 2026-05-07 18:37 | 39.83060 | 41.96826 | 24324 ft | 443 kts | 102° |
| 2026-05-07 18:38 | 39.82400 | 42.00714 | 23754 ft | 438 kts | 102° |
| 2026-05-07 18:38 | 39.81752 | 42.04525 | 23103 ft | 433 kts | 102° |
| 2026-05-07 18:38 | 39.81107 | 42.08308 | 22153 ft | 426 kts | 102° |
| 2026-05-07 18:38 | 39.80471 | 42.12037 | 21294 ft | 417 kts | 102° |
| 2026-05-07 18:39 | 39.79841 | 42.15718 | 20642 ft | 409 kts | 102° |
| 2026-05-07 18:39 | 39.79225 | 42.19309 | 20023 ft | 406 kts | 102° |
| 2026-05-07 18:39 | 39.78604 | 42.22927 | 19390 ft | 403 kts | 102° |
| 2026-05-07 18:39 | 39.77994 | 42.26475 | 18773 ft | 401 kts | 102° |
| 2026-05-07 18:40 | 39.77386 | 42.30002 | 18102 ft | 398 kts | 102° |
| 2026-05-07 18:40 | 39.76781 | 42.33503 | 17464 ft | 394 kts | 102° |
| 2026-05-07 18:40 | 39.76183 | 42.36957 | 16867 ft | 389 kts | 102° |
| 2026-05-07 18:40 | 39.75592 | 42.40365 | 16273 ft | 385 kts | 103° |
| 2026-05-07 18:41 | 39.75005 | 42.43745 | 15664 ft | 381 kts | 103° |
| 2026-05-07 18:41 | 39.74424 | 42.47085 | 15071 ft | 377 kts | 103° |
| 2026-05-07 18:41 | 39.73846 | 42.50396 | 14480 ft | 374 kts | 103° |
| 2026-05-07 18:41 | 39.73274 | 42.53676 | 13876 ft | 371 kts | 103° |
| 2026-05-07 18:42 | 39.72713 | 42.56880 | 13261 ft | 367 kts | 103° |
| 2026-05-07 18:42 | 39.72142 | 42.60127 | 12716 ft | 361 kts | 103° |
| 2026-05-07 18:42 | 39.71592 | 42.63246 | 12177 ft | 356 kts | 103° |
| 2026-05-07 18:42 | 39.71041 | 42.66361 | 11618 ft | 352 kts | 103° |
| 2026-05-07 18:43 | 39.70495 | 42.69447 | 11052 ft | 349 kts | 103° |
| 2026-05-07 18:43 | 39.69958 | 42.72498 | 10536 ft | 344 kts | 103° |
| 2026-05-07 18:43 | 39.69425 | 42.75529 | 10250 ft | 333 kts | 103° |
| 2026-05-07 18:43 | 39.68944 | 42.78350 | 10187 ft | 315 kts | 99° |
| 2026-05-07 18:44 | 39.68902 | 42.81115 | 9992 ft | 301 kts | 78° |
| 2026-05-07 18:44 | 39.69700 | 42.83530 | 9719 ft | 285 kts | 51° |
| 2026-05-07 18:44 | 39.71105 | 42.85185 | 9675 ft | 263 kts | 34° |
| 2026-05-07 18:44 | 39.72601 | 42.86562 | 9690 ft | 263 kts | 33° |
| 2026-05-07 18:45 | 39.74094 | 42.87943 | 9653 ft | 262 kts | 37° |
| 2026-05-07 18:45 | 39.75458 | 42.89489 | 9292 ft | 261 kts | 45° |
| 2026-05-07 18:45 | 39.76643 | 42.91249 | 8869 ft | 263 kts | 52° |
| 2026-05-07 18:45 | 39.77664 | 42.93256 | 8476 ft | 263 kts | 60° |
| 2026-05-07 18:46 | 39.78374 | 42.95426 | 8107 ft | 262 kts | 81° |
| 2026-05-07 18:46 | 39.78125 | 42.97716 | 7807 ft | 257 kts | 117° |
| 2026-05-07 18:46 | 39.76937 | 42.99275 | 7673 ft | 242 kts | 153° |
| 2026-05-07 18:46 | 39.75347 | 42.99838 | 7294 ft | 236 kts | 170° |
| 2026-05-07 18:47 | 39.73706 | 43.00164 | 6695 ft | 241 kts | 170° |
| 2026-05-07 18:47 | 39.72039 | 43.00553 | 6175 ft | 237 kts | 168° |
| 2026-05-07 18:47 | 39.70411 | 43.01015 | 6376 ft | 241 kts | 166° |
| 2026-05-07 18:47 | 39.68826 | 43.01550 | 7654 ft | 226 kts | 165° |
| 2026-05-07 18:48 | 39.67404 | 43.02104 | 8665 ft | 206 kts | 167° |
| 2026-05-07 18:48 | 39.66072 | 43.02420 | 9699 ft | 181 kts | 174° |
| 2026-05-07 18:48 | 39.65272 | 43.02564 | 10365 ft | 164 kts | 173° |
| 2026-05-07 18:48 | 39.64464 | 43.02746 | 11008 ft | 152 kts | 171° |
| 2026-05-07 18:49 | 39.63448 | 43.03072 | 11329 ft | 177 kts | 165° |
| 2026-05-07 18:49 | 39.62219 | 43.03769 | 11453 ft | 207 kts | 142° |
| 2026-05-07 18:50 | 39.61154 | 43.05118 | 11987 ft | 227 kts | 134° |
| 2026-05-07 18:50 | 39.60186 | 43.06890 | 12053 ft | 241 kts | 113° |
| 2026-05-07 18:50 | 39.59856 | 43.09013 | 12002 ft | 242 kts | 89° |
| 2026-05-07 18:50 | 39.60154 | 43.11152 | 11997 ft | 243 kts | 70° |
| 2026-05-07 18:51 | 39.60822 | 43.13170 | 11967 ft | 244 kts | 64° |
| 2026-05-07 18:51 | 39.61555 | 43.15134 | 11967 ft | 244 kts | 64° |
| 2026-05-07 18:51 | 39.62308 | 43.17148 | 11964 ft | 244 kts | 64° |
| 2026-05-07 18:51 | 39.63121 | 43.19077 | 11957 ft | 243 kts | 49° |
| 2026-05-07 18:52 | 39.64460 | 43.20344 | 11959 ft | 238 kts | 17° |
| 2026-05-07 18:52 | 39.66081 | 43.20635 | 11967 ft | 236 kts | 357° |
| 2026-05-07 18:52 | 39.67712 | 43.20390 | 11965 ft | 236 kts | 342° |
| 2026-05-07 18:52 | 39.69218 | 43.19523 | 11967 ft | 234 kts | 328° |
| 2026-05-07 18:53 | 39.70602 | 43.18448 | 11962 ft | 235 kts | 327° |
| 2026-05-07 18:53 | 39.71988 | 43.17329 | 11963 ft | 235 kts | 326° |
| 2026-05-07 18:53 | 39.73374 | 43.16206 | 11763 ft | 235 kts | 326° |
| 2026-05-07 18:53 | 39.74758 | 43.15084 | 11493 ft | 233 kts | 326° |
| 2026-05-07 18:54 | 39.76130 | 43.13971 | 11225 ft | 232 kts | 326° |
| 2026-05-07 18:54 | 39.77495 | 43.12863 | 10954 ft | 231 kts | 326° |
| 2026-05-07 18:54 | 39.78849 | 43.11763 | 10728 ft | 230 kts | 326° |
| 2026-05-07 18:54 | 39.80208 | 43.10623 | 10267 ft | 237 kts | 320° |
| 2026-05-07 18:55 | 39.81332 | 43.09022 | 9673 ft | 245 kts | 300° |
| 2026-05-07 18:55 | 39.81820 | 43.06906 | 8994 ft | 249 kts | 271° |
| 2026-05-07 18:55 | 39.81363 | 43.04746 | 8389 ft | 251 kts | 239° |
| 2026-05-07 18:55 | 39.80263 | 43.03016 | 7820 ft | 246 kts | 226° |
| 2026-05-07 18:56 | 39.79050 | 43.01490 | 7308 ft | 239 kts | 224° |
| 2026-05-07 18:56 | 39.77837 | 43.00080 | 7018 ft | 229 kts | 216° |
| 2026-05-07 18:56 | 39.76378 | 42.99293 | 6988 ft | 222 kts | 187° |
| 2026-05-07 18:56 | 39.74899 | 42.99234 | 6971 ft | 204 kts | 171° |
| 2026-05-07 18:57 | 39.73635 | 42.99683 | 6893 ft | 178 kts | 159° |
| 2026-05-07 18:57 | 39.72472 | 43.00147 | 6663 ft | 172 kts | 167° |
| 2026-05-07 18:57 | 39.71343 | 43.00520 | 6394 ft | 160 kts | 164° |
| 2026-05-07 18:57 | 39.70295 | 43.00904 | 6114 ft | 154 kts | 164° |
| 2026-05-07 18:58 | 39.69266 | 43.01269 | 5891 ft | 153 kts | 165° |
| 2026-05-07 18:58 | 39.68240 | 43.01632 | 5677 ft | 152 kts | 166° |
| 2026-05-07 18:58 | 39.67222 | 43.01994 | 5489 ft | 151 kts | 166° |
| 2026-05-07 18:58 | 39.66237 | 43.02339 | 5406 ft | 130 kts | 165° |
| 2026-05-07 18:59 | 39.65672 | 43.02542 | 5400 ft | 34 kts | 165° |
| 2026-05-07 18:59 | 39.65567 | 43.02561 | 5407 ft | 9 kts | 219° |
| 2026-05-07 18:59 | 39.65547 | 43.02487 | 5397 ft | 8 kts | 257° |
| 2026-05-07 18:59 | 39.65534 | 43.02419 | 5399 ft | 7 kts | 255° |
| 2026-05-07 19:00 | 39.65522 | 43.02359 | 5411 ft | 6 kts | 255° |
| 2026-05-07 19:00 | 39.65513 | 43.02316 | 5401 ft | 3 kts | 255° |
| 2026-05-07 19:00 | 39.65501 | 43.02293 | 5403 ft | 5 kts | 210° |
| 2026-05-07 19:00 | 39.65461 | 43.02269 | 5409 ft | 7 kts | 233° |
| 2026-05-07 19:01 | 39.65451 | 43.02236 | 5404 ft | 2 kts | 256° |
| 2026-05-07 19:01 | 39.65449 | 43.02222 | 5402 ft | 1 kts | 255° |
| 2026-05-07 19:01 | 39.65448 | 43.02218 | 5402 ft | 0 kts | 254° |